Time;durP1;ratioP1;P1;durP2;ratioP2;P2;SDS_P1;SDS_P2;PMS_P1;PMS_P2;Temp;Humidity;BMP_temperature;BMP_pressure;BME280_temperature;BME280_humidity;BME280_pressure;Samples;Min_cycle;Max_cycle;Signal;HPM_P1;HPM_P2
2023/07/01 00:01:31;;;;;;;4.78;1.70;;;;;;;18.69;61.57;100770.75;5130085;27;20030;-37
2023/07/01 00:03:57;;;;;;;5.68;1.63;;;;;;;18.65;60.55;100767.75;5129710;27;20027;-37
2023/07/01 00:06:22;;;;;;;3.20;1.35;;;;;;;18.67;60.03;100762.00;5130434;27;20061;-37
2023/07/01 00:08:48;;;;;;;;;;;;;;;18.77;60.30;100765.47;5130365;27;20031;-37
2023/07/01 00:11:13;;;;;;;3.63;1.50;;;;;;;18.64;61.24;100751.59;5120252;27;20293;-37
2023/07/01 00:13:38;;;;;;;;;;;;;;;18.75;60.22;100756.75;5116545;28;20047;-37
2023/07/01 00:16:04;;;;;;;4.97;1.50;;;;;;;18.69;60.75;100743.38;5116093;28;19937;-37
2023/07/01 00:18:30;;;;;;;;;;;;;;;18.80;60.52;100746.84;5116027;28;20277;-37
2023/07/01 00:20:55;;;;;;;3.17;1.42;;;;;;;18.68;60.80;100748.03;5116266;28;19915;-37
2023/07/01 00:23:21;;;;;;;7.28;1.70;;;;;;;18.69;61.29;100740.63;5115600;28;20027;-37
2023/07/01 00:25:46;;;;;;;;;;;;;;;18.76;61.35;100739.19;5116128;28;20130;-37
2023/07/01 00:28:12;;;;;;;4.68;1.50;;;;;;;18.63;61.14;100734.34;5115858;27;19976;-38
2023/07/01 00:30:37;;;;;;;4.18;1.48;;;;;;;18.59;60.82;100730.53;5115518;28;20056;-37
2023/07/01 00:33:05;;;;;;;4.40;1.30;;;;;;;18.59;61.02;100736.03;5115679;28;20032;-37
2023/07/01 00:35:33;;;;;;;4.57;1.27;;;;;;;18.55;61.34;100723.22;5116581;28;20023;-37
2023/07/01 00:37:59;;;;;;;4.13;1.42;;;;;;;18.47;62.33;100711.78;5116057;28;20039;-37
2023/07/01 00:40:25;;;;;;;4.45;1.35;;;;;;;18.53;60.93;100721.56;5115489;28;20031;-37
2023/07/01 00:42:50;;;;;;;3.50;1.50;;;;;;;18.55;63.55;100717.75;5116279;28;20024;-37
2023/07/01 00:45:16;;;;;;;3.80;1.27;;;;;;;18.39;62.02;100698.69;5115493;28;20027;-37
2023/07/01 00:47:41;;;;;;;2.90;1.48;;;;;;;18.44;62.83;100709.59;5116262;28;20106;-37
2023/07/01 00:50:12;;;;;;;3.25;1.55;;;;;;;18.32;62.60;100700.94;5115594;28;20031;-37
2023/07/01 00:52:38;;;;;;;7.53;1.40;;;;;;;18.44;63.72;100706.84;5115802;28;20356;-37
2023/07/01 00:55:04;;;;;;;4.43;1.40;;;;;;;18.42;63.20;100703.59;5115331;28;20034;-37
2023/07/01 00:57:29;;;;;;;3.88;1.38;;;;;;;18.39;63.98;100701.41;5114890;28;20039;-37
2023/07/01 00:59:55;;;;;;;2.95;1.50;;;;;;;18.45;64.64;100700.28;5114911;28;20048;-37
2023/07/01 01:02:25;;;;;;;3.95;1.50;;;;;;;18.45;63.93;100694.81;5115816;28;20069;-37
2023/07/01 01:05:10;;;;;;;3.35;1.40;;;;;;;18.44;64.16;100712.31;5115066;28;20025;-37
2023/07/01 01:08:14;;;;;;;3.55;1.70;;;;;;;18.43;67.05;100697.00;5115783;28;20030;-37
2023/07/01 01:10:42;;;;;;;5.72;1.40;;;;;;;18.44;66.72;100697.81;5115058;28;20031;-37
2023/07/01 01:13:09;;;;;;;5.97;1.58;;;;;;;18.44;66.04;100697.81;5115905;28;20032;-37
2023/07/01 01:15:36;;;;;;;2.58;1.40;;;;;;;18.40;67.32;100689.41;5115126;27;20031;-37
2023/07/01 01:18:04;;;;;;;3.85;1.45;;;;;;;18.41;67.22;100691.03;5115025;28;20038;-37
2023/07/01 01:20:33;;;;;;;4.43;1.30;;;;;;;18.37;68.12;100678.19;5115148;28;20028;-37
2023/07/01 01:23:03;;;;;;;3.47;1.55;;;;;;;18.35;67.75;100669.44;5113991;28;20039;-37
2023/07/01 01:25:42;;;;;;;3.13;1.60;;;;;;;18.40;67.90;100677.63;5114670;28;20048;-37
2023/07/01 01:28:08;;;;;;;4.85;1.50;;;;;;;18.36;68.84;100673.81;5115248;28;20098;-37
2023/07/01 01:30:34;;;;;;;3.53;1.67;;;;;;;18.39;68.82;100665.84;5114206;28;20051;-37
2023/07/01 01:33:00;;;;;;;3.22;1.50;;;;;;;18.36;68.31;100663.69;5114498;28;20050;-37
2023/07/01 01:35:26;;;;;;;3.35;1.25;;;;;;;18.30;69.00;100653.06;5114089;28;20028;-37
2023/07/01 01:38:00;;;;;;;6.15;1.60;;;;;;;18.32;69.23;100653.59;5114428;28;20038;-37
2023/07/01 01:40:36;;;;;;;3.97;1.40;;;;;;;18.30;69.40;100650.31;5114578;28;20084;-37
2023/07/01 01:43:12;;;;;;;3.40;1.50;;;;;;;18.31;69.21;100651.97;5114811;28;20096;-37
2023/07/01 01:45:38;;;;;;;2.67;1.10;;;;;;;18.31;70.02;100660.19;5114583;28;20020;-37
2023/07/01 01:48:04;;;;;;;;;;;;;;;18.38;69.02;100652.44;5115240;28;20340;-37
2023/07/01 01:50:32;;;;;;;4.63;1.52;;;;;;;18.24;71.13;100635.88;5114595;28;20351;-37
2023/07/01 01:53:01;;;;;;;4.25;1.70;;;;;;;18.29;71.41;100644.03;5114811;28;20023;-37
2023/07/01 01:55:27;;;;;;;5.40;1.70;;;;;;;18.19;71.41;100636.72;5114082;28;20024;-37
2023/07/01 01:57:53;;;;;;;3.80;1.38;;;;;;;18.27;71.19;100638.03;5114579;28;20393;-37
2023/07/01 02:00:19;;;;;;;5.05;1.60;;;;;;;18.21;71.95;100626.31;5113720;28;20075;-37
2023/07/01 02:02:44;;;;;;;4.57;1.65;;;;;;;18.20;71.99;100627.44;5113650;28;20054;-37
2023/07/01 02:05:10;;;;;;;3.60;1.35;;;;;;;18.24;72.20;100624.91;5113528;28;20027;-37
2023/07/01 02:07:35;;;;;;;;;;;;;;;18.35;71.10;100631.09;5115019;28;20028;-37
2023/07/01 02:10:01;;;;;;;8.52;1.83;;;;;;;18.18;74.36;100626.06;5113480;28;20283;-37
2023/07/01 02:12:26;;;;;;;4.50;1.58;;;;;;;18.08;75.55;100631.63;5114069;28;20141;-37
2023/07/01 02:14:52;;;;;;;4.43;1.85;;;;;;;18.05;79.61;100633.00;5114068;28;20106;-37
2023/07/01 02:17:17;;;;;;;4.15;1.65;;;;;;;17.93;81.25;100627.09;5113980;28;20096;-37
2023/07/01 02:19:42;;;;;;;4.30;1.60;;;;;;;17.84;84.90;100615.94;5113559;28;20415;-37
2023/07/01 02:22:08;;;;;;;;;;;;;;;17.89;83.80;100631.50;5114061;28;20035;-37
2023/07/01 02:24:33;;;;;;;4.27;1.90;;;;;;;17.71;87.83;100616.53;5113797;28;19907;-37
2023/07/01 02:26:59;;;;;;;;;;;;;;;17.77;85.20;100612.72;5114550;28;20717;-37
2023/07/01 02:29:24;;;;;;;5.22;1.70;;;;;;;17.60;90.03;100607.59;5113484;28;20044;-37
2023/07/01 02:31:50;;;;;;;4.80;1.80;;;;;;;17.48;91.78;100597.03;5113451;28;20513;-37
2023/07/01 02:34:15;;;;;;;;;;;;;;;17.54;90.43;100597.81;5113521;28;20103;-37
2023/07/01 02:36:43;;;;;;;3.03;1.60;;;;;;;17.35;93.69;100599.56;5113694;28;19965;-37
2023/07/01 02:39:08;;;;;;;3.05;1.50;;;;;;;17.34;94.92;100587.00;5113426;28;20285;-37
2023/07/01 02:41:34;;;;;;;4.78;1.60;;;;;;;17.26;95.51;100596.59;5113404;28;20034;-37
2023/07/01 02:43:59;;;;;;;;;;;;;;;17.38;92.31;100585.34;5113784;27;20126;-37
2023/07/01 02:46:26;;;;;;;5.87;1.87;;;;;;;17.23;97.11;100594.44;5113419;28;19908;-37
2023/07/01 02:48:52;;;;;;;3.63;1.67;;;;;;;17.09;98.70;100577.84;5112987;28;20303;-37
2023/07/01 02:51:17;;;;;;;5.97;2.08;;;;;;;17.06;99.64;100583.03;5113176;28;20031;-37
2023/07/01 02:53:42;;;;;;;;;;;;;;;17.21;97.33;100586.50;5113825;28;20020;-37
2023/07/01 02:56:08;;;;;;;2.60;1.30;;;;;;;17.07;99.61;100580.00;5112989;28;20351;-37
2023/07/01 02:58:33;;;;;;;3.97;1.58;;;;;;;17.09;99.80;100582.50;5113293;28;20037;-37
2023/07/01 03:00:59;;;;;;;2.95;1.63;;;;;;;17.00;100.00;100579.50;5113873;28;20115;-37
2023/07/01 03:03:24;;;;;;;;;;;;;;;17.09;99.55;100582.50;5113603;28;20374;-37
2023/07/01 03:05:49;;;;;;;4.47;1.80;;;;;;;17.00;100.00;100574.06;5113261;28;19912;-37
2023/07/01 03:08:14;;;;;;;;;;;;;;;17.04;100.00;100577.06;5113959;28;20448;-37
2023/07/01 03:10:40;;;;;;;2.27;1.47;;;;;;;16.93;100.00;100565.31;5113298;28;20318;-37
2023/07/01 03:13:05;;;;;;;;;;;;;;;17.02;100.00;100576.50;5113538;28;20273;-37
2023/07/01 03:15:30;;;;;;;2.63;1.20;;;;;;;16.96;100.00;100565.59;5113399;28;20279;-37
2023/07/01 03:17:56;;;;;;;;;;;;;;;17.01;100.00;100570.22;5113359;28;20615;-37
2023/07/01 03:20:23;;;;;;;4.93;1.75;;;;;;;16.90;100.00;100561.25;5113598;28;20014;-37
2023/07/01 03:22:53;;;;;;;1.80;1.25;;;;;;;16.91;100.00;100570.25;5112877;28;20490;-37
2023/07/01 03:25:19;;;;;;;2.88;1.45;;;;;;;16.77;100.00;100555.56;5113136;28;20108;-37
2023/07/01 03:27:45;;;;;;;4.18;1.50;;;;;;;16.71;100.00;100550.13;5112306;28;20031;-37
2023/07/01 03:30:13;;;;;;;;;;;;;;;16.81;100.00;100557.47;5112882;28;20122;-37
2023/07/01 03:32:43;;;;;;;3.38;1.50;;;;;;;16.72;100.00;100549.03;5112501;28;19914;-37
2023/07/01 03:35:10;;;;;;;2.63;1.52;;;;;;;16.80;100.00;100552.28;5112782;28;20024;-37
2023/07/01 03:37:36;;;;;;;3.67;1.40;;;;;;;16.80;100.00;100546.84;5113217;28;20043;-37
2023/07/01 03:40:04;;;;;;;4.30;1.50;;;;;;;16.81;100.00;100548.47;5113104;28;20320;-37
2023/07/01 03:42:29;;;;;;;3.67;1.40;;;;;;;16.80;100.00;100544.09;5113412;28;20110;-37
2023/07/01 03:44:54;;;;;;;;;;;;;;;16.88;100.00;100552.50;5113142;28;20157;-37
2023/07/01 03:47:21;;;;;;;2.93;1.63;;;;;;;16.80;100.00;100542.19;5116417;28;19915;-37
2023/07/01 03:49:47;;;;;;;3.40;2.05;;;;;;;16.75;100.00;100533.22;5116957;28;20373;-37
2023/07/01 03:52:12;;;;;;;;;;;;;;;16.84;100.00;100539.72;5117246;28;20031;-37
2023/07/01 03:54:37;;;;;;;3.63;1.63;;;;;;;16.72;100.00;100535.38;5117092;28;19907;-37
2023/07/01 03:57:03;;;;;;;;;;;;;;;16.76;100.00;100530.19;5116969;27;20321;-37
2023/07/01 03:59:28;;;;;;;1.88;1.25;;;;;;;16.62;100.00;100535.41;5116223;28;19915;-37
2023/07/01 04:01:53;;;;;;;;;;;;;;;16.66;100.00;100538.38;5117018;28;20043;-37
2023/07/01 04:04:18;;;;;;;3.07;1.40;;;;;;;16.54;100.00;100530.50;5116221;28;19916;-37
2023/07/01 04:06:44;;;;;;;;;;;;;;;16.62;100.00;100526.38;5117109;28;20253;-37
2023/07/01 04:09:12;;;;;;;4.90;1.60;;;;;;;16.55;100.00;100523.16;5116126;28;19918;-37
2023/07/01 04:11:38;;;;;;;3.35;1.50;;;;;;;16.54;100.00;100529.69;5116059;28;20262;-37
2023/07/01 04:14:04;;;;;;;2.92;1.60;;;;;;;16.47;100.00;100525.34;5115703;28;20057;-37
2023/07/01 04:16:29;;;;;;;;;;;;;;;16.50;100.00;100523.16;5116799;28;20061;-37
2023/07/01 04:18:55;;;;;;;2.22;1.40;;;;;;;16.32;100.00;100503.56;5116150;28;19916;-38
2023/07/01 04:21:21;;;;;;;;;;;;;;;16.42;100.00;100508.16;5116904;28;20068;-37
2023/07/01 04:23:46;;;;;;;2.22;1.40;;;;;;;16.33;100.00;100498.91;5115647;28;20378;-37
2023/07/01 04:26:12;;;;;;;;;;;;;;;16.36;100.00;100503.84;5116986;28;20020;-37
2023/07/01 04:28:37;;;;;;;1.87;1.30;;;;;;;16.28;100.00;100498.94;5116050;28;19911;-37
2023/07/01 04:31:02;;;;;;;;;;;;;;;16.35;100.00;100499.47;5116775;28;20345;-37
2023/07/01 04:33:28;;;;;;;2.37;1.37;;;;;;;16.20;100.00;100492.13;5115865;28;19911;-37
2023/07/01 04:35:53;;;;;;;;;;;;;;;16.34;100.00;100493.19;5116595;28;20689;-37
2023/07/01 04:38:18;;;;;;;2.17;1.50;;;;;;;16.13;100.00;100488.88;5115718;28;19932;-37
2023/07/01 04:40:44;;;;;;;;;;;;;;;16.18;100.00;100495.13;5115994;28;20031;-37
2023/07/01 04:43:10;;;;;;;3.50;1.40;;;;;;;16.09;100.00;100487.78;5115296;28;19951;-37
2023/07/01 04:45:35;;;;;;;;;;;;;;;16.16;100.00;100485.59;5116795;27;20451;-37
2023/07/01 04:48:00;;;;;;;1.97;1.30;;;;;;;16.12;100.00;100474.44;5115130;28;19913;-37
2023/07/01 04:50:26;;;;;;;;;;;;;;;16.18;100.00;100476.03;5116539;28;20304;-37
2023/07/01 04:52:51;;;;;;;1.83;1.27;;;;;;;16.09;100.00;100480.44;5115401;28;19907;-37
2023/07/01 04:55:18;;;;;;;;;;;;;;;16.16;100.00;100477.44;5115744;28;20717;-37
2023/07/01 04:57:44;;;;;;;1.85;1.35;;;;;;;16.04;100.00;100466.00;5114916;28;19958;-37
2023/07/01 05:00:10;;;;;;;;;;;;;;;16.12;100.00;100473.63;5115757;28;20044;-37
2023/07/01 05:02:36;;;;;;;2.72;1.30;;;;;;;16.02;100.00;100470.91;5115418;28;20371;-37
2023/07/01 05:05:01;;;;;;;;;;;;;;;16.06;100.00;100466.53;5115214;28;20122;-37
2023/07/01 05:07:27;;;;;;;;;;;;;;;16.08;100.00;100470.63;5115477;28;19959;-37
2023/07/01 05:09:52;;;;;;;;;;;;;;;16.11;100.00;100469.25;5115448;28;19912;-37
2023/07/01 05:12:17;;;;;;;;;;;;;;;16.13;100.00;100465.16;5115408;28;19911;-37
2023/07/01 05:14:42;;;;;;;;;;;;;;;16.16;100.00;100471.97;5115084;28;19968;-37
2023/07/01 05:17:08;;;;;;;;;;;;;;;16.19;100.00;100471.41;5116105;28;19934;-37
2023/07/01 05:19:34;;;;;;;;;;;;;;;16.25;100.00;100472.19;5115162;27;19919;-37
2023/07/01 05:21:59;;;;;;;;;;;;;;;16.28;100.00;100474.38;5116010;28;20348;-37
2023/07/01 05:24:24;;;;;;;;;;;;;;;16.27;100.00;100472.75;5115073;28;19923;-37
2023/07/01 05:26:50;;;;;;;;;;;;;;;16.25;100.00;100464.00;5115419;28;19919;-37
2023/07/01 05:29:16;;;;;;;;;;;;;;;16.29;100.00;100471.38;5114701;28;19922;-37
2023/07/01 05:31:42;;;;;;;;;;;;;;;16.32;100.00;100465.38;5115040;28;19915;-37
2023/07/01 05:34:07;;;;;;;;;;;;;;;16.33;100.00;100468.91;5114627;28;19911;-37
2023/07/01 05:36:32;;;;;;;;;;;;;;;16.34;100.00;100463.16;5115553;28;19937;-37
2023/07/01 05:38:58;;;;;;;;;;;;;;;16.34;100.00;100463.16;5114439;28;19918;-37
2023/07/01 05:41:23;;;;;;;;;;;;;;;16.32;100.00;100449.00;5115210;28;19918;-37
2023/07/01 05:43:49;;;;;;;;;;;;;;;16.32;100.00;100461.81;5115279;28;19912;-37
2023/07/01 05:46:14;;;;;;;;;;;;;;;16.35;100.00;100458.53;5114741;28;19923;-37
2023/07/01 05:48:40;;;;;;;;;;;;;;;16.35;100.00;100464.00;5114737;28;19912;-37
2023/07/01 05:51:06;;;;;;;;;;;;;;;16.40;100.00;100455.78;5114973;28;19958;-37
2023/07/01 05:53:31;;;;;;;;;;;;;;;16.40;100.00;100444.88;5114280;28;19950;-36
2023/07/01 05:55:56;;;;;;;;;;;;;;;16.44;100.00;100456.84;5114199;28;19912;-36
2023/07/01 05:58:21;;;;;;;;;;;;;;;16.45;100.00;100448.41;5114135;27;19916;-36
2023/07/01 06:00:47;;;;;;;;;;;;;;;16.50;100.00;100450.28;5114988;28;19915;-37
2023/07/01 06:03:13;;;;;;;;;;;;;;;16.52;100.00;100450.00;5113799;28;19912;-36
2023/07/01 06:05:39;;;;;;;;;;;;;;;16.51;100.00;100441.00;5113771;28;20272;-36
2023/07/01 06:08:04;;;;;;;;;;;;;;;16.53;100.00;100447.00;5113847;28;19912;-36
2023/07/01 06:10:29;;;;;;;;;;;;;;;16.52;100.00;100447.28;5114391;28;19911;-36
2023/07/01 06:12:55;;;;;;;;;;;;;;;16.48;100.00;100445.09;5114324;27;19915;-36
2023/07/01 06:15:20;;;;;;;;;;;;;;;16.50;100.00;100444.03;5114267;28;19912;-36
2023/07/01 06:17:45;;;;;;;;;;;;;;;16.53;100.00;100441.53;5114914;28;20011;-36
2023/07/01 06:20:10;;;;;;;;;;;;;;;16.53;100.00;100438.78;5114252;28;19912;-36
2023/07/01 06:22:36;;;;;;;;;;;;;;;16.52;100.00;100442.63;5113822;28;19951;-36
2023/07/01 06:25:01;;;;;;;;;;;;;;;16.55;100.00;100444.00;5113574;28;19978;-36
2023/07/01 06:27:26;;;;;;;;;;;;;;;16.59;100.00;100443.16;5113728;28;19939;-36
2023/07/01 06:29:51;;;;;;;;;;;;;;;16.67;100.00;100436.28;5113406;28;19965;-36
2023/07/01 06:32:17;;;;;;;;;;;;;;;16.75;100.00;100437.66;5113270;28;19941;-37
2023/07/01 06:34:42;;;;;;;;;;;;;;;16.76;100.00;100433.81;5113645;28;19922;-37
2023/07/01 06:37:08;;;;;;;;;;;;;;;16.77;100.00;100436.25;5113943;28;19938;-37
2023/07/01 06:39:33;;;;;;;;;;;;;;;16.75;100.00;100433.00;5113832;28;20293;-36
2023/07/01 06:41:58;;;;;;;;;;;;;;;16.73;100.00;100433.25;5114015;28;19959;-37
2023/07/01 06:44:23;;;;;;;;;;;;;;;16.70;100.00;100439.28;5113544;28;20397;-36
2023/07/01 06:46:48;;;;;;;;;;;;;;;16.71;100.00;100443.66;5113520;28;19916;-37
2023/07/01 06:49:14;;;;;;;;;;;;;;;16.75;100.00;100435.72;5112429;28;19957;-37
2023/07/01 06:51:40;;;;;;;;;;;;;;;16.80;100.00;100432.16;5113475;28;19996;-37
2023/07/01 06:54:05;;;;;;;;;;;;;;;16.82;100.00;100436.22;5114474;28;19916;-37
2023/07/01 06:56:30;;;;;;;;;;;;;;;16.84;100.00;100431.31;5114343;28;20003;-37
2023/07/01 06:58:56;;;;;;;;;;;;;;;16.86;100.00;100431.00;5113501;28;19947;-37
2023/07/01 07:01:21;;;;;;;;;;;;;;;16.87;100.00;100430.72;5113746;28;19915;-37
2023/07/01 07:03:46;;;;;;;;;;;;;;;16.86;100.00;100433.75;5114225;28;19916;-37
2023/07/01 07:06:11;;;;;;;;;;;;;;;16.91;100.00;100431.78;5113930;28;19912;-37
2023/07/01 07:08:37;;;;;;;;;;;;;;;16.92;100.00;100430.69;5113097;28;20287;-37
2023/07/01 07:11:02;;;;;;;;;;;;;;;16.91;100.00;100422.78;5113454;28;19935;-37
2023/07/01 07:13:27;;;;;;;;;;;;;;;16.86;100.00;100431.00;5113569;28;19950;-37
2023/07/01 07:15:53;;;;;;;;;;;;;;;16.81;100.00;100426.41;5113601;28;20016;-37
2023/07/01 07:18:18;;;;;;;;;;;;;;;16.84;100.00;100430.50;5113178;28;19911;-37
2023/07/01 07:20:44;;;;;;;;;;;;;;;16.82;100.00;100425.28;5114915;28;19920;-37
2023/07/01 07:23:09;;;;;;;;;;;;;;;16.82;100.00;100419.84;5116769;28;19966;-38
2023/07/01 07:25:34;;;;;;;;;;;;;;;16.81;100.00;100420.13;5117518;28;19923;-38
2023/07/01 07:28:00;;;;;;;;;;;;;;;16.83;100.00;100421.47;5117427;28;19998;-37
2023/07/01 07:30:25;;;;;;;;;;;;;;;16.84;100.00;100427.75;5118096;28;19919;-38
2023/07/01 07:32:50;;;;;;;;;;;;;;;16.83;100.00;100417.91;5117528;28;20382;-37
2023/07/01 07:35:16;;;;;;;;;;;;;;;16.86;100.00;100417.34;5117952;28;19912;-37
2023/07/01 07:37:41;;;;;;;;;;;;;;;16.86;100.00;100425.56;5118231;28;19911;-38
2023/07/01 07:40:07;;;;;;;;;;;;;;;16.87;100.00;100422.53;5117163;28;19918;-38
2023/07/01 07:42:33;;;;;;;;;;;;;;;16.90;100.00;100416.50;5117472;27;20351;-37
2023/07/01 07:44:58;;;;;;;;;;;;;;;16.92;100.00;100416.22;5117386;28;19912;-37
2023/07/01 07:47:23;;;;;;;;;;;;;;;16.94;100.00;100416.78;5117155;28;20371;-37
2023/07/01 07:49:48;;;;;;;;;;;;;;;16.96;100.00;100417.28;5117373;28;19911;-37
2023/07/01 07:52:14;;;;;;;;;;;;;;;16.99;100.00;100403.06;5117537;28;20382;-37
2023/07/01 07:54:40;;;;;;;;;;;;;;;16.99;100.00;100420.28;5117344;28;19961;-37
2023/07/01 07:57:05;;;;;;;;;;;;;;;16.98;100.00;100415.91;5116813;28;20011;-37
2023/07/01 07:59:31;;;;;;;;;;;;;;;17.01;100.00;100414.53;5117394;28;19915;-38
2023/07/01 08:01:57;;;;;;;;;;;;;;;17.07;100.00;100399.72;5117311;28;19912;-37
2023/07/01 08:04:23;;;;;;;;;;;;;;;17.11;100.00;100403.50;5116067;28;19911;-37
2023/07/01 08:06:49;;;;;;;;;;;;;;;17.14;100.00;100405.69;5116548;28;19965;-38
2023/07/01 08:09:14;;;;;;;;;;;;;;;17.13;100.00;100397.75;5116964;28;19919;-38
2023/07/01 08:11:39;;;;;;;;;;;;;;;17.15;100.00;100398.31;5116639;28;19995;-37
2023/07/01 08:14:04;;;;;;;;;;;;;;;17.16;100.00;100392.53;5117569;28;20353;-37
2023/07/01 08:16:31;;;;;;;;;;;;;;;17.20;100.00;100390.88;5116539;28;19918;-37
2023/07/01 08:18:57;;;;;;;;;;;;;;;17.22;100.00;100388.66;5116290;28;19919;-37
2023/07/01 08:21:22;;;;;;;;;;;;;;;17.25;100.00;100396.31;5116858;28;19920;-37
2023/07/01 08:23:47;;;;;;;;;;;;;;;17.31;100.00;100388.06;5116851;28;19918;-38
2023/07/01 08:26:13;;;;;;;;;;;;;;;17.34;100.00;100401.16;5116656;28;19919;-37
2023/07/01 08:28:38;;;;;;;;;;;;;;;17.36;100.00;100398.94;5117316;28;19918;-37
2023/07/01 08:31:04;;;;;;;;;;;;;;;17.37;100.00;100392.38;5116210;28;19912;-38
2023/07/01 08:33:29;;;;;;;;;;;;;;;17.44;100.00;100395.59;5116342;28;20228;-38
2023/07/01 08:35:57;;;;;;;;;;;;;;;17.51;100.00;100398.81;5116142;28;19916;-38
2023/07/01 08:38:23;;;;;;;;;;;;;;;17.56;100.00;100401.47;5116262;28;19922;-37
2023/07/01 08:40:50;;;;;;;;;;;;;;;17.58;100.00;100387.53;5116532;28;19966;-38
2023/07/01 08:43:16;;;;;;;;;;;;;;;17.60;100.00;100388.06;5115689;28;19920;-38
2023/07/01 08:45:42;;;;;;;;;;;;;;;17.64;100.00;100387.19;5116815;28;20355;-38
2023/07/01 08:48:08;;;;;;;;;;;;;;;17.67;100.00;100381.16;5116165;28;19912;-38
2023/07/01 08:50:37;;;;;;;;;;;;;;;17.70;100.00;100387.97;5115729;28;19938;-38
2023/07/01 08:53:05;;;;;;;;;;;;;;;17.75;100.00;100386.00;5116026;28;19933;-38
2023/07/01 08:55:31;;;;;;;;;;;;;;;17.78;100.00;100387.38;5115877;28;19912;-38
2023/07/01 08:57:56;;;;;;;;;;;;;;;17.78;100.00;100383.81;5116591;28;20335;-38
2023/07/01 09:00:21;;;;;;;;;;;;;;;17.78;100.00;100378.34;5116864;28;19919;-38
2023/07/01 09:02:48;;;;;;;;;;;;;;;17.80;100.00;100384.31;5116474;28;19911;-37
2023/07/01 09:05:13;;;;;;;;;;;;;;;17.81;100.00;100380.47;5115517;28;19918;-38
2023/07/01 09:07:40;;;;;;;;;;;;;;;17.87;100.00;100384.81;5116106;28;20310;-37
2023/07/01 09:10:07;;;;;;;;;;;;;;;17.88;100.00;100380.97;5115709;28;19922;-37
2023/07/01 09:12:32;;;;;;;;;;;;;;;17.87;100.00;100379.34;5115441;28;19916;-37
2023/07/01 09:15:01;;;;;;;;;;;;;;;17.91;100.00;100383.94;5115284;28;19915;-37
2023/07/01 09:17:28;;;;;;;;;;;;;;;17.96;100.00;100385.81;5115454;28;20399;-37
2023/07/01 09:19:53;;;;;;;;;;;;;;;18.02;100.00;100381.91;5115489;28;19916;-37
2023/07/01 09:22:18;;;;;;;;;;;;;;;18.05;100.00;100381.28;5115357;28;20052;-38
2023/07/01 09:24:43;;;;;;;;;;;;;;;18.07;100.00;100379.09;5114985;28;20041;-38
2023/07/01 09:27:09;;;;;;;;;;;;;;;18.06;100.00;100373.94;5115486;28;20426;-38
2023/07/01 09:29:35;;;;;;;;;;;;;;;18.10;100.00;100383.16;5115400;28;19915;-38
2023/07/01 09:32:00;;;;;;;;;;;;;;;18.13;100.00;100377.94;5115346;28;19919;-38
2023/07/01 09:34:26;;;;;;;;;;;;;;;18.19;100.00;100374.00;5115817;28;20243;-38
2023/07/01 09:36:51;;;;;;;;;;;;;;;18.24;100.00;100367.66;5116007;28;20013;-38
2023/07/01 09:39:32;;;;;;;;;;;;;;;18.25;100.00;100363.81;5115102;28;19956;-38
2023/07/01 09:42:02;;;;;;;;;;;;;;;18.23;100.00;100364.09;5115955;28;20009;-37
2023/07/01 09:44:28;;;;;;;;;;;;;;;18.26;100.00;100370.94;5113959;28;20355;-37
2023/07/01 09:46:53;;;;;;;;;;;;;;;18.25;100.00;100364.66;5115385;28;20006;-37
2023/07/01 09:49:18;;;;;;;;;;;;;;;18.27;100.00;100364.34;5114617;28;19918;-37
2023/07/01 09:51:54;;;;;;;;;;;;;;;18.27;100.00;100356.94;5115240;28;19988;-38
2023/07/01 09:54:38;;;;;;;;;;;;;;;18.30;100.00;100362.94;5114900;28;19912;-37
2023/07/01 09:57:04;;;;;;;;;;;;;;;18.28;100.00;100363.22;5114827;28;19912;-38
2023/07/01 09:59:29;;;;;;;;;;;;;;;18.26;100.00;100366.28;5114602;28;19954;-38
2023/07/01 10:01:55;;;;;;;;;;;;;;;18.26;100.00;100369.00;5115606;28;20302;-38
2023/07/01 10:04:27;;;;;;;;;;;;;;;18.27;100.00;100356.13;5114744;28;20390;-37
2023/07/01 10:06:53;;;;;;;;;;;;;;;18.28;100.00;100360.50;5115036;28;20241;-38
2023/07/01 10:09:19;;;;;;;;;;;;;;;18.32;100.00;100347.84;5115024;28;19930;-38
2023/07/01 10:11:44;;;;;;;;;;;;;;;18.36;100.00;100356.31;5114852;28;19916;-38
2023/07/01 10:14:10;;;;;;;;;;;;;;;18.40;100.00;100354.59;5114201;28;20439;-37
2023/07/01 10:16:44;;;;;;;;;;;;;;;18.42;100.00;100349.63;5114726;28;19934;-37
2023/07/01 10:19:46;;;;;;;;;;;;;;;18.44;100.00;100352.88;5114358;28;19919;-37
2023/07/01 10:22:17;;;;;;;;;;;;;;;18.44;100.00;100350.16;5071047;28;19920;-37
2023/07/01 10:24:43;;;;;;;;;;;;;;;18.43;100.00;100352.06;5097434;28;19915;-38
2023/07/01 10:27:08;;;;;;;;;;;;;;;18.44;100.00;100345.47;5113808;28;20305;-37
2023/07/01 10:29:34;;;;;;;;;;;;;;;18.46;100.00;100342.47;5114086;28;19922;-37
2023/07/01 10:32:08;;;;;;;;;;;;;;;18.49;100.00;100339.13;5113951;28;20010;-37
2023/07/01 10:34:52;;;;;;;;;;;;;;;18.49;100.00;100342.66;5113713;28;19923;-37
2023/07/01 10:37:17;;;;;;;;;;;;;;;18.57;100.00;100343.13;5114064;28;19944;-37
2023/07/01 10:39:43;;;;;;;;;;;;;;;18.63;100.00;100345.47;5113607;28;20297;-37
2023/07/01 10:42:36;;;;;;;;;;;;;;;18.70;100.00;100348.72;5114005;28;19918;-37
2023/07/01 10:45:11;;;;;;;;;;;;;;;18.70;100.00;100342.41;5113233;28;20279;-37
2023/07/01 10:47:46;;;;;;;;;;;;;;;18.74;100.00;100336.06;5114089;28;19919;-37
2023/07/01 10:50:12;;;;;;;;;;;;;;;18.80;100.00;100339.53;5113962;28;19912;-37
2023/07/01 10:53:04;;;;;;;;;;;;;;;18.89;100.00;100336.94;5113559;28;19994;-37
2023/07/01 10:55:40;;;;;;;;;;;;;;;18.97;100.00;100333.50;5111404;28;19911;-37
2023/07/01 10:58:22;;;;;;;;;;;;;;;19.06;100.00;100336.38;5114229;28;19939;-37
2023/07/01 11:00:51;;;;;;;;;;;;;;;19.12;100.00;100338.72;5114362;28;19921;-37
2023/07/01 11:03:34;;;;;;;;;;;;;;;19.15;100.00;100335.38;5114346;28;19918;-37
2023/07/01 11:06:04;;;;;;;;;;;;;;;19.15;100.00;100338.13;5113829;28;20255;-37
2023/07/01 11:08:30;;;;;;;;;;;;;;;19.18;100.00;100342.16;5113790;28;20324;-37
2023/07/01 11:10:56;;;;;;;;;;;;;;;19.25;100.00;100339.88;5113983;28;20006;-37
2023/07/01 11:13:21;;;;;;;;;;;;;;;19.32;100.00;100336.72;5113399;28;20006;-37
2023/07/01 11:16:03;;;;;;;;;;;;;;;19.40;100.00;100339.59;5113676;28;19957;-37
2023/07/01 11:18:40;;;;;;;;;;;;;;;19.50;100.00;100344.88;5134029;28;19916;-37
2023/07/01 11:21:06;;;;;;;;;;;;;;;19.61;100.00;100339.25;5134427;28;20004;-37
2023/07/01 11:23:31;;;;;;;;;;;;;;;19.68;100.00;100331.44;5133817;28;19946;-37
2023/07/01 11:25:56;;;;;;;;;;;;;;;19.76;100.00;100330.72;5134918;28;20384;-37
2023/07/01 11:28:37;;;;;;;;;;;;;;;19.86;100.00;100324.19;5134514;28;19957;-37
2023/07/01 11:31:09;;;;;;;;;;;;;;;20.01;100.00;100324.72;5134356;28;19911;-37
2023/07/01 11:33:34;;;;;;;;;;;;;;;20.15;100.00;100326.63;5134221;28;20010;-37
2023/07/01 11:35:59;;;;;;;;;;;;;;;20.25;100.00;100316.25;5134499;28;19962;-37
2023/07/01 11:38:26;;;;;;;;;;;;;;;20.34;100.00;100319.06;5133360;28;19915;-37
2023/07/01 11:40:52;;;;;;;;;;;;;;;20.46;100.00;100329.53;5134478;28;19911;-37
2023/07/01 11:43:18;;;;;;;;;;;;;;;20.50;100.00;100328.63;5134480;28;20244;-37
2023/07/01 11:45:47;;;;;;;;;;;;;;;20.51;100.00;100329.44;5133304;28;19942;-37
2023/07/01 11:48:12;;;;;;;;;;;;;;;20.48;100.00;100325.34;5133761;28;19958;-37
2023/07/01 11:50:50;;;;;;;;;;;;;;;20.43;100.00;100328.19;5134408;28;19912;-37
2023/07/01 11:53:16;;;;;;;;;;;;;;;20.37;100.00;100323.13;5115198;28;19960;-37
2023/07/01 11:55:41;;;;;;;;;;;;;;;20.37;100.00;100323.13;5133769;28;19915;-37
2023/07/01 11:58:23;;;;;;;;;;;;;;;20.38;100.00;100327.50;5133671;28;20416;-37
2023/07/01 12:00:48;;;;;;;;;;;;;;;20.35;100.00;100334.44;5134367;28;19940;-37
2023/07/01 12:03:13;;;;;;;;;;;;;;;20.29;100.00;100330.97;5133303;28;20101;-38
2023/07/01 12:05:42;;;;;;;;;;;;;;;20.20;100.00;100335.56;5132571;27;19919;-37